Terminal Aerodrome Forecast
Issued by NWS

Home | Current Version | Previous Version | Text Only | Print | Product List | Glossary On
Versions: 1 2 3 4 5 6 7 8 9 10 11 12 13 14 15 16
257
FTUS41 KBTV 290522
TAFSLK
TAF
KSLK 290522Z 2906/3006 VRB02KT P6SM OVC110
     FM290900 22004KT P6SM VCSH SCT090 BKN100
     FM291400 23010G18KT P6SM OVC080
     FM291800 26013G21KT P6SM BKN050
     FM300200 30008KT P6SM FEW200=

USA.gov is the U.S. government's official web portal to all federal, state and local government web resources and services.